createdAt,value
2023-06-11T05:01:58.367Z,10.23
2023-06-11T05:04:50.678Z,10.48
2023-06-11T05:07:37.407Z,10.00
2023-06-11T05:10:23.995Z,9.43
2023-06-11T05:13:11.793Z,10.43
2023-06-11T07:20:47.522Z,8.38
2023-06-11T07:23:35.799Z,8.00
2023-06-11T07:26:22.070Z,8.30
2023-06-11T07:29:09.770Z,8.70
2023-06-11T07:32:01.543Z,8.55
2023-06-11T07:34:47.933Z,9.18
2023-06-11T07:37:36.297Z,8.73
2023-06-11T07:40:22.644Z,8.85
2023-06-11T07:43:09.221Z,8.73
2023-06-11T07:45:55.713Z,8.43
2023-06-11T07:48:42.933Z,8.93
2023-06-11T07:51:29.168Z,9.00
2023-06-11T07:54:25.226Z,7.75
2023-06-11T07:57:14.177Z,8.88
2023-06-11T08:00:01.408Z,8.65
2023-06-11T08:02:50.154Z,7.75
2023-06-11T08:05:38.151Z,9.43
2023-06-11T08:08:25.689Z,8.82
2023-06-11T08:11:13.606Z,8.63
2023-06-11T08:13:59.767Z,8.13
2023-06-11T08:16:46.671Z,8.48
2023-06-11T08:19:33.882Z,8.45
2023-06-11T08:22:20.317Z,8.27
2023-06-11T08:25:06.614Z,8.40
2023-06-11T08:27:57.093Z,8.70
2023-06-11T08:30:43.339Z,8.30
2023-06-11T08:33:31.300Z,7.93
2023-06-11T08:36:17.941Z,7.63
2023-06-11T08:39:04.882Z,8.27
2023-06-11T08:41:51.203Z,8.07
2023-06-11T08:44:39.137Z,6.95
2023-06-11T08:47:25.249Z,7.53
2023-06-11T08:50:12.526Z,7.95
2023-06-11T08:53:01.718Z,7.93
2023-06-11T08:55:48.000Z,7.60
2023-06-11T08:58:35.704Z,7.85
2023-06-11T09:01:24.307Z,7.30
2023-06-11T09:04:10.847Z,7.75
2023-06-11T09:06:59.267Z,7.43
2023-06-11T09:09:45.711Z,7.65
2023-06-11T09:12:32.346Z,7.85
2023-06-11T09:15:19.592Z,7.70
2023-06-11T09:18:09.713Z,6.85
2023-06-11T09:20:57.350Z,7.38
2023-06-11T09:23:46.741Z,8.10
2023-06-11T09:26:33.213Z,8.93
2023-06-11T09:29:19.348Z,7.50
2023-06-11T09:32:12.485Z,7.50
2023-06-11T09:35:12.272Z,6.57
2023-06-11T09:37:58.709Z,7.65
2023-06-11T09:40:47.055Z,7.05
2023-06-11T09:43:35.070Z,7.00
2023-06-11T09:46:23.090Z,6.78
2023-06-11T09:49:10.368Z,7.35
2023-06-11T09:51:59.632Z,6.90
2023-06-11T09:54:47.546Z,7.20
2023-06-11T09:57:33.872Z,6.78
2023-06-11T10:00:20.953Z,6.90
2023-06-11T10:03:07.475Z,6.10
2023-06-11T10:05:54.447Z,6.40
2023-06-11T10:08:42.652Z,6.70
2023-06-11T10:11:31.339Z,6.43
2023-06-11T10:14:18.108Z,6.13
2023-06-11T11:04:43.698Z,5.80
2023-06-11T11:07:35.310Z,5.10
2023-06-11T11:10:25.380Z,5.57
2023-06-11T11:13:12.121Z,6.13
2023-06-11T11:15:59.641Z,6.13
2023-06-11T11:18:47.296Z,6.05
2023-06-11T11:21:33.808Z,5.80
2023-06-11T11:24:22.390Z,6.00
2023-06-11T11:27:09.000Z,5.68
2023-06-11T11:29:59.411Z,6.07
2023-06-11T11:32:47.212Z,6.25
2023-06-11T11:35:33.678Z,5.55
2023-06-11T11:38:19.956Z,5.50
2023-06-11T11:41:10.481Z,5.25
2023-06-11T11:43:57.017Z,5.72
2023-06-11T11:46:43.346Z,5.53
2023-06-11T11:49:33.589Z,5.60
2023-06-11T11:52:22.344Z,5.60
2023-06-11T11:55:08.885Z,5.30
2023-06-11T11:58:03.897Z,5.65
2023-06-11T12:00:50.813Z,5.65
2023-06-11T12:03:37.938Z,4.97
2023-06-11T12:06:25.083Z,4.95
2023-06-11T12:09:11.355Z,5.38
2023-06-11T12:12:05.215Z,5.25
2023-06-11T12:14:53.732Z,5.30
2023-06-11T12:17:41.396Z,5.35
2023-06-11T12:20:28.261Z,5.15
2023-06-11T12:23:15.419Z,4.68
2023-06-11T12:26:03.099Z,4.65
2023-06-11T12:28:51.155Z,4.75
2023-06-11T12:31:38.964Z,4.00
2023-06-11T12:34:25.227Z,3.70
2023-06-11T12:37:11.930Z,4.00
2023-06-11T12:39:58.677Z,3.30
2023-06-11T12:42:45.909Z,3.53
2023-06-11T12:45:34.061Z,3.95
2023-06-11T12:48:22.004Z,3.47
2023-06-11T12:51:08.364Z,3.30
2023-06-11T12:53:54.487Z,3.17
2023-06-11T12:56:40.982Z,3.20
2023-06-11T12:59:27.167Z,3.45
2023-06-11T13:02:19.250Z,3.30
2023-06-11T13:05:07.767Z,3.47
2023-06-11T13:07:55.098Z,3.95
2023-06-11T13:10:41.745Z,3.28
2023-06-11T13:13:28.277Z,3.67
2023-06-11T13:20:12.521Z,3.42
2023-06-11T13:22:59.237Z,3.83
2023-06-11T13:25:48.320Z,3.45
2023-06-11T13:28:34.981Z,3.80
2023-06-11T13:31:21.686Z,3.83
2023-06-11T13:34:08.065Z,3.80
2023-06-11T13:36:57.387Z,3.60
2023-06-11T13:39:43.806Z,3.47
2023-06-11T13:42:31.392Z,3.60
2023-06-11T13:45:19.975Z,3.47
2023-06-11T13:48:12.334Z,3.63
2023-06-11T13:50:58.847Z,3.47
2023-06-11T13:53:46.657Z,3.97
2023-06-11T13:56:32.790Z,3.90
2023-06-11T13:59:20.872Z,4.18
2023-06-11T14:02:08.207Z,3.70
2023-06-11T14:04:54.737Z,3.60
2023-06-11T14:07:42.282Z,3.58
2023-06-11T14:10:29.987Z,3.40
2023-06-11T14:13:16.352Z,3.38
2023-06-11T14:16:03.842Z,3.20
2023-06-11T14:18:50.531Z,3.17
2023-06-11T14:21:37.955Z,3.25
2023-06-11T14:24:24.793Z,3.47
2023-06-11T14:27:12.497Z,3.65
2023-06-11T14:29:58.887Z,3.75
2023-06-11T14:32:45.089Z,3.25
2023-06-11T14:35:31.653Z,3.65
2023-06-11T14:38:18.276Z,3.58
2023-06-11T14:41:04.756Z,3.67
2023-06-11T14:43:52.701Z,3.35
2023-06-11T14:46:39.325Z,3.88
2023-06-11T14:49:26.126Z,3.92
2023-06-11T14:52:12.278Z,3.67
2023-06-11T14:54:59.381Z,3.35
2023-06-11T14:57:45.966Z,3.50
2023-06-11T15:00:54.014Z,3.28
2023-06-11T15:03:41.660Z,3.60
2023-06-11T15:06:28.044Z,3.50
2023-06-11T15:09:14.511Z,3.35
2023-06-11T15:12:03.727Z,3.05
2023-06-11T15:14:50.056Z,3.28
2023-06-11T15:17:37.517Z,6.85
2023-06-11T15:20:25.062Z,8.15
2023-06-11T15:23:11.466Z,4.20
2023-06-11T15:25:58.017Z,4.18
2023-06-11T15:28:44.570Z,3.90
2023-06-11T15:31:31.062Z,3.95
2023-06-11T15:34:17.401Z,5.65
2023-06-11T15:37:04.936Z,11.80
2023-06-11T15:39:51.753Z,11.98
2023-06-11T15:42:38.089Z,12.55
2023-06-11T15:45:24.697Z,21.52
2023-06-11T15:48:10.695Z,4.40
2023-06-11T15:50:57.168Z,4.55
2023-06-11T15:53:44.577Z,4.10
2023-06-11T15:56:30.532Z,3.78
2023-06-11T15:59:17.187Z,4.03
2023-06-11T16:02:03.542Z,5.20
2023-06-11T16:04:52.091Z,4.85
2023-06-11T16:07:38.237Z,5.45
2023-06-11T16:10:26.055Z,5.03
2023-06-11T16:13:12.514Z,4.90
2023-06-11T16:15:59.021Z,4.45
2023-06-11T16:18:45.387Z,4.40
2023-06-11T16:21:31.502Z,5.13
2023-06-11T16:24:18.247Z,4.63
2023-06-11T16:27:06.327Z,4.82
2023-06-11T16:29:52.642Z,3.70
2023-06-11T16:32:39.084Z,3.90
2023-06-11T16:35:25.442Z,4.72
2023-06-11T16:38:12.192Z,3.97
2023-06-11T16:40:59.174Z,3.97
2023-06-11T16:43:46.944Z,5.80
2023-06-11T16:46:33.572Z,5.90
2023-06-11T16:49:19.896Z,4.85
2023-06-11T16:52:06.955Z,4.25
2023-06-11T16:54:53.321Z,4.00
2023-06-11T16:57:39.704Z,4.60
2023-06-11T17:00:27.185Z,4.43
2023-06-11T17:03:13.502Z,4.55
2023-06-11T17:05:59.765Z,5.45
2023-06-11T17:08:45.879Z,4.75
2023-06-11T17:11:31.931Z,5.57
2023-06-11T17:14:19.545Z,4.60
2023-06-11T17:17:07.465Z,4.57
2023-06-11T17:19:53.699Z,5.63
2023-06-11T17:22:40.068Z,5.00
2023-06-11T17:25:26.766Z,5.75
2023-06-11T17:28:13.402Z,10.27
2023-06-11T17:30:59.574Z,6.97
2023-06-11T17:33:46.929Z,6.68
2023-06-11T17:36:33.541Z,5.70
2023-06-11T17:39:19.712Z,6.35
2023-06-11T17:42:06.183Z,8.02
2023-06-11T17:44:52.744Z,6.63
2023-06-11T17:47:39.236Z,6.50
2023-06-11T17:50:27.168Z,6.40
2023-06-11T17:53:13.582Z,8.98
2023-06-11T17:55:59.630Z,7.22
2023-06-11T17:58:46.265Z,6.95
2023-06-11T18:01:32.468Z,5.82
2023-06-11T18:04:19.037Z,6.15
2023-06-11T18:07:10.671Z,5.80
2023-06-11T18:09:57.559Z,6.38
2023-06-11T18:12:44.098Z,6.20
2023-06-11T18:15:33.974Z,5.72
2023-06-11T18:18:21.702Z,6.25
2023-06-11T18:21:07.888Z,6.22
2023-06-11T18:23:55.536Z,5.80
2023-06-11T18:26:43.810Z,6.18
2023-06-11T18:29:33.610Z,5.78
2023-06-11T18:32:20.712Z,5.90
2023-06-11T18:35:07.476Z,6.07
2023-06-11T18:37:53.841Z,6.60
2023-06-11T18:40:41.697Z,6.72
2023-06-11T18:43:29.875Z,5.97
2023-06-11T18:46:15.997Z,6.63
2023-06-11T18:49:02.385Z,6.30
2023-06-11T18:51:50.168Z,7.10
2023-06-11T18:54:38.318Z,5.95
2023-06-11T18:57:30.515Z,6.32
2023-06-11T19:03:11.548Z,6.90
2023-06-11T19:05:58.076Z,6.75
2023-06-11T19:08:44.609Z,6.85
2023-06-11T19:11:31.043Z,6.78
2023-06-11T19:14:18.680Z,7.18
2023-06-11T19:17:05.513Z,7.70
2023-06-11T19:19:52.078Z,7.15
2023-06-11T19:22:38.406Z,7.53
2023-06-11T19:25:25.138Z,7.70
2023-06-11T19:28:11.252Z,7.18
2023-06-11T19:31:00.312Z,7.45
2023-06-11T19:33:46.760Z,6.95
2023-06-11T19:36:33.204Z,6.80
2023-06-11T19:39:19.718Z,7.10
2023-06-11T19:42:06.228Z,6.78
2023-06-11T19:44:52.398Z,6.63
2023-06-11T19:47:40.310Z,6.75
2023-06-11T19:50:27.439Z,6.70
2023-06-11T19:53:13.496Z,6.68
2023-06-11T19:55:59.392Z,6.65
2023-06-11T19:58:45.914Z,6.95
2023-06-11T22:01:53.046Z,4.85
2023-06-11T22:04:39.114Z,5.32
2023-06-11T22:07:25.698Z,5.10
2023-06-11T22:10:12.558Z,4.93
2023-06-11T22:12:59.053Z,4.40
